Time;durP1;ratioP1;P1;durP2;ratioP2;P2;SDS_P1;SDS_P2;PMS_P1;PMS_P2;Temp;Humidity;BMP_temperature;BMP_pressure;BME280_temperature;BME280_humidity;BME280_pressure;Samples;Min_cycle;Max_cycle;Signal;HPM_P1;HPM_P2
2023/01/08 14:33:42;;;;;;;16.25;8.13;;;7.80;88.20;;;;;;7586006;19;20372;-74
2023/01/08 14:36:15;;;;;;;19.25;8.38;;;7.80;88.20;;;;;;7598524;19;20038;-73
2023/01/08 14:38:51;;;;;;;13.75;7.82;;;7.60;88.10;;;;;;7596420;19;20017;-74
2023/01/08 14:44:26;;;;;;;9.65;5.68;;;7.80;87.20;;;;;;7553548;19;20023;-74
2023/01/08 14:47:17;;;;;;;11.77;6.05;;;7.90;86.70;;;;;;7594679;19;20881;-72
2023/01/08 14:49:52;;;;;;;13.77;6.55;;;7.90;87.00;;;;;;7598517;19;20018;-73
2023/01/08 14:52:24;;;;;;;12.93;7.45;;;7.90;88.00;;;;;;7586112;19;20086;-74
2023/01/08 14:55:02;;;;;;;12.13;7.28;;;8.00;87.50;;;;;;7608407;19;20010;-74
2023/01/08 14:57:34;;;;;;;9.18;5.82;;;8.00;86.90;;;;;;7599752;19;20020;-75
2023/01/08 15:00:16;;;;;;;9.52;5.28;;;8.00;86.40;;;;;;7605414;19;20018;-75
2023/01/08 15:02:49;;;;;;;10.13;5.22;;;8.00;87.60;;;;;;7614815;19;20629;-74
2023/01/08 15:05:30;;;;;;;6.95;3.40;;;8.00;87.60;;;;;;7629296;19;20012;-74
2023/01/08 15:08:23;;;;;;;7.40;3.67;;;8.00;86.30;;;;;;7612642;19;20018;-75
2023/01/08 15:11:18;;;;;;;4.38;2.97;;;8.00;86.70;;;;;;7605613;19;20732;-73
2023/01/08 15:13:52;;;;;;;3.90;2.60;;;7.90;86.30;;;;;;7611440;19;20025;-75
2023/01/08 15:16:41;;;;;;;3.67;2.63;;;8.00;86.10;;;;;;7602955;19;20328;-73
2023/01/08 15:19:16;;;;;;;4.38;2.83;;;8.00;85.50;;;;;;7600192;19;20848;-73
2023/01/08 15:21:57;;;;;;;6.20;3.03;;;8.00;84.70;;;;;;7618828;19;20484;-76
2023/01/08 15:24:35;;;;;;;4.05;2.78;;;7.90;85.50;;;;;;7623621;19;21071;-74
2023/01/08 15:27:17;;;;;;;5.28;3.08;;;7.90;85.50;;;;;;7615327;19;20325;-75
2023/01/08 15:29:59;;;;;;;6.00;2.70;;;7.90;85.10;;;;;;7613046;19;20014;-75
2023/01/08 15:32:33;;;;;;;5.07;2.78;;;7.90;85.90;;;;;;7598278;19;20018;-76
2023/01/08 15:35:17;;;;;;;9.43;5.88;;;7.90;87.00;;;;;;7601577;19;20033;-75
2023/01/08 15:37:49;;;;;;;;;;;7.90;89.50;;;;;;7620335;19;20014;-75
2023/01/08 15:40:21;;;;;;;31.15;12.40;;;7.80;90.30;;;;;;7617426;19;19918;-75
2023/01/08 15:43:08;;;;;;;77.28;31.10;;;7.70;91.20;;;;;;7611614;19;20029;-75
2023/01/08 15:45:44;;;;;;;195.43;73.97;;;7.60;92.10;;;;;;7570016;19;20014;-76
2023/01/08 15:48:16;;;;;;;276.90;109.75;;;7.60;92.60;;;;;;7582723;19;20025;-75
2023/01/08 15:50:48;;;;;;;70.40;28.42;;;7.50;93.00;;;;;;7594486;19;20010;-75
2023/01/08 15:53:21;;;;;;;30.08;12.77;;;7.50;93.70;;;;;;7592072;19;20408;-75
2023/01/08 15:55:53;;;;;;;241.73;114.03;;;7.50;94.40;;;;;;7565930;19;22019;-75
2023/01/08 15:58:25;;;;;;;219.50;105.95;;;7.40;94.80;;;;;;7566348;19;20123;-74
2023/01/08 16:00:57;;;;;;;33.55;15.43;;;7.30;96.00;;;;;;7546968;19;20397;-74
2023/01/08 16:03:30;;;;;;;29.93;14.97;;;7.30;96.70;;;;;;7552661;19;20015;-75
2023/01/08 16:06:06;;;;;;;36.67;17.05;;;7.30;97.30;;;;;;7565111;19;20292;-74
2023/01/08 16:08:44;;;;;;;61.40;31.17;;;7.30;98.20;;;;;;7575124;19;27031;-75
2023/01/08 16:11:17;;;;;;;14.38;8.07;;;7.40;97.20;;;;;;7586802;19;20018;-74
2023/01/08 16:13:50;;;;;;;;;;;7.20;98.10;;;;;;7583350;19;20011;-73
2023/01/08 16:16:22;;;;;;;5.90;3.50;;;7.10;98.50;;;;;;7597961;19;19919;-75
2023/01/08 16:18:54;;;;;;;6.78;3.75;;;7.00;98.60;;;;;;7567711;19;20034;-76
2023/01/08 16:21:26;;;;;;;7.32;4.43;;;6.90;99.70;;;;;;7581716;19;20018;-73
2023/01/08 16:23:58;;;;;;;7.18;4.22;;;6.80;98.90;;;;;;7592568;19;20634;-74
2023/01/08 16:26:30;;;;;;;8.10;4.78;;;6.80;99.60;;;;;;7579210;19;20634;-72
2023/01/08 16:29:03;;;;;;;10.20;5.85;;;6.70;99.90;;;;;;7585430;19;20113;-74
2023/01/08 16:31:35;;;;;;;9.80;6.18;;;6.70;99.80;;;;;;7574511;19;20026;-75
2023/01/08 16:34:09;;;;;;;8.43;5.07;;;6.60;99.70;;;;;;7567628;19;20023;-75
2023/01/08 16:36:41;;;;;;;7.47;4.40;;;6.60;99.90;;;;;;7583815;19;20023;-74
2023/01/08 16:39:13;;;;;;;10.40;4.28;;;6.40;99.90;;;;;;7567542;19;20015;-75
2023/01/08 16:41:48;;;;;;;6.03;3.75;;;6.30;99.90;;;;;;7582359;19;20010;-75
2023/01/08 16:44:23;;;;;;;6.38;3.30;;;6.20;99.90;;;;;;7583280;19;20855;-73
2023/01/08 16:47:00;;;;;;;7.35;4.10;;;6.10;99.90;;;;;;7569096;19;21198;-73
2023/01/08 16:49:32;;;;;;;6.35;3.60;;;6.00;99.90;;;;;;7573964;19;20030;-74
2023/01/08 16:52:04;;;;;;;8.88;5.35;;;5.90;99.90;;;;;;7591737;19;20064;-73
2023/01/08 16:54:36;;;;;;;10.02;4.75;;;5.80;99.90;;;;;;7588375;19;20078;-74
2023/01/08 16:57:08;;;;;;;7.70;4.75;;;5.70;99.90;;;;;;7579509;19;20015;-74
2023/01/08 16:59:40;;;;;;;17.90;4.97;;;5.70;99.90;;;;;;7579455;19;21359;-73
2023/01/08 17:02:13;;;;;;;12.05;7.45;;;5.60;99.90;;;;;;7564624;19;20022;-73
2023/01/08 17:04:45;;;;;;;10.52;5.35;;;5.50;99.90;;;;;;7545915;19;20010;-74
2023/01/08 17:07:17;;;;;;;12.73;6.10;;;5.50;99.90;;;;;;7556597;19;20639;-73
2023/01/08 17:09:49;;;;;;;11.80;6.03;;;5.40;99.90;;;;;;7556116;19;20657;-74
2023/01/08 17:12:21;;;;;;;7.82;5.18;;;5.50;99.90;;;;;;7582239;19;20018;-74
2023/01/08 17:14:53;;;;;;;8.35;5.45;;;5.40;99.90;;;;;;7576274;19;20966;-74
2023/01/08 17:17:25;;;;;;;7.25;4.90;;;5.40;99.90;;;;;;7579323;19;20897;-74
2023/01/08 17:19:57;;;;;;;9.50;4.97;;;5.40;99.90;;;;;;7583277;19;20017;-73
2023/01/08 17:22:29;;;;;;;10.52;5.55;;;5.30;99.90;;;;;;7577014;19;20010;-73
2023/01/08 17:25:02;;;;;;;10.52;5.55;;;5.40;99.90;;;;;;7586469;19;20078;-73
2023/01/08 17:27:34;;;;;;;8.77;5.65;;;5.40;99.90;;;;;;7575453;19;20064;-74
2023/01/08 17:30:09;;;;;;;9.35;5.82;;;5.40;99.90;;;;;;7579721;19;20018;-73
2023/01/08 17:32:41;;;;;;;10.10;5.80;;;5.30;99.90;;;;;;7573484;19;20018;-73
2023/01/08 17:35:13;;;;;;;9.00;5.28;;;5.20;99.90;;;;;;7576990;19;20022;-73
2023/01/08 17:37:45;;;;;;;10.13;6.07;;;5.20;99.90;;;;;;7579010;19;20022;-74
2023/01/08 17:40:18;;;;;;;13.97;7.17;;;5.10;99.90;;;;;;7555436;19;20014;-74
2023/01/08 17:42:50;;;;;;;12.68;7.10;;;5.10;99.90;;;;;;7576707;19;20038;-74
2023/01/08 17:45:22;;;;;;;13.20;6.80;;;5.00;99.90;;;;;;7571412;19;20014;-74
2023/01/08 17:47:54;;;;;;;9.50;6.13;;;5.00;99.90;;;;;;7581251;19;20329;-74
2023/01/08 17:50:27;;;;;;;11.98;6.03;;;4.90;99.90;;;;;;7578859;19;20018;-73
2023/01/08 17:52:59;;;;;;;9.60;5.10;;;4.90;99.90;;;;;;7581045;19;20014;-73
2023/01/08 17:55:31;;;;;;;8.77;5.93;;;4.90;99.90;;;;;;7565368;19;20010;-74
2023/01/08 17:58:03;;;;;;;9.95;6.22;;;4.90;99.90;;;;;;7567434;19;20007;-73
2023/01/08 18:00:35;;;;;;;12.10;6.95;;;4.80;99.90;;;;;;7563603;19;20014;-72
2023/01/08 18:03:07;;;;;;;13.60;7.15;;;4.80;99.90;;;;;;7555464;19;20014;-74
2023/01/08 18:05:39;;;;;;;15.40;7.72;;;4.80;99.90;;;;;;7564085;19;20103;-73
2023/01/08 18:08:11;;;;;;;18.58;9.30;;;4.80;99.90;;;;;;7572379;19;20006;-73
2023/01/08 18:10:44;;;;;;;18.67;10.00;;;4.80;99.90;;;;;;7571642;19;20030;-74
2023/01/08 18:13:16;;;;;;;24.10;9.65;;;4.80;99.90;;;;;;7528657;19;20014;-74
2023/01/08 18:15:48;;;;;;;18.95;10.25;;;4.70;99.90;;;;;;7578568;19;20018;-74
2023/01/08 18:18:20;;;;;;;16.92;8.25;;;4.70;99.90;;;;;;7573436;19;20021;-74
2023/01/08 18:20:53;;;;;;;13.35;7.38;;;4.80;99.90;;;;;;7580590;19;20018;-75
2023/01/08 18:23:25;;;;;;;17.05;8.73;;;4.70;99.90;;;;;;7575782;19;20048;-74
2023/01/08 18:26:06;;;;;;;16.15;8.52;;;4.80;99.90;;;;;;7580526;19;21052;-74
2023/01/08 18:28:38;;;;;;;15.15;8.50;;;4.80;99.90;;;;;;7576002;19;20145;-73
2023/01/08 18:31:12;;;;;;;12.43;7.78;;;4.80;99.90;;;;;;7576053;19;20018;-74
2023/01/08 18:33:44;;;;;;;;;;;4.80;99.90;;;;;;7581189;19;20599;-74
2023/01/08 18:36:17;;;;;;;13.40;7.63;;;4.80;99.90;;;;;;7576978;19;19994;-73
2023/01/08 18:38:49;;;;;;;12.53;7.57;;;4.80;99.90;;;;;;7582254;19;20018;-73
2023/01/08 18:44:13;;;;;;;12.93;7.93;;;4.70;99.90;;;;;;7587216;19;21595;-73
2023/01/08 18:46:46;;;;;;;12.90;8.07;;;4.60;99.90;;;;;;7573682;19;20010;-74
2023/01/08 18:49:20;;;;;;;14.23;7.97;;;4.60;99.90;;;;;;7575563;19;20018;-74
2023/01/08 18:51:52;;;;;;;16.23;8.35;;;4.60;99.90;;;;;;7577847;19;20025;-74
2023/01/08 18:54:24;;;;;;;11.70;7.60;;;4.60;99.90;;;;;;7571621;19;20068;-74
2023/01/08 18:56:57;;;;;;;16.88;8.07;;;4.50;99.90;;;;;;7580377;19;20621;-74
2023/01/08 18:59:29;;;;;;;13.43;7.93;;;4.50;99.90;;;;;;7582363;19;20019;-74
2023/01/08 19:02:02;;;;;;;17.73;7.57;;;4.50;99.90;;;;;;7576069;19;20037;-76
2023/01/08 19:04:34;;;;;;;13.02;7.63;;;4.50;99.90;;;;;;7555161;19;20715;-74
2023/01/08 19:07:07;;;;;;;;;;;4.60;99.90;;;;;;7569687;19;20019;-74
2023/01/08 19:09:40;;;;;;;11.95;7.57;;;4.50;99.90;;;;;;7584923;19;20293;-74
2023/01/08 19:12:13;;;;;;;14.77;8.07;;;4.50;99.90;;;;;;7577458;19;20019;-73
2023/01/08 19:14:46;;;;;;;18.58;11.65;;;4.50;99.90;;;;;;7577839;19;20022;-73
2023/01/08 19:17:18;;;;;;;14.55;8.70;;;4.50;99.90;;;;;;7570612;19;20620;-74
2023/01/08 19:19:50;;;;;;;16.77;9.45;;;4.60;99.90;;;;;;7585372;19;20030;-74
2023/01/08 19:22:25;;;;;;;14.30;7.85;;;4.60;99.90;;;;;;7592887;19;20021;-73
2023/01/08 19:24:57;;;;;;;13.02;8.45;;;4.50;99.90;;;;;;7591843;19;20044;-73
2023/01/08 19:27:29;;;;;;;13.00;8.45;;;4.50;99.90;;;;;;7589781;19;20024;-73
2023/01/08 19:30:06;;;;;;;12.07;6.88;;;4.50;99.90;;;;;;7594698;19;20018;-74
2023/01/08 19:32:38;;;;;;;12.65;8.07;;;4.60;99.90;;;;;;7585263;19;20428;-73
2023/01/08 19:35:10;;;;;;;14.63;7.97;;;4.70;99.90;;;;;;7577452;19;20014;-74
2023/01/08 19:37:43;;;;;;;13.68;8.10;;;4.70;99.90;;;;;;7559474;19;20090;-75
2023/01/08 19:40:16;;;;;;;14.73;8.27;;;4.70;99.90;;;;;;7565262;19;20047;-73
2023/01/08 19:45:39;;;;;;;12.98;7.28;;;4.70;99.90;;;;;;7572744;19;20006;-74
2023/01/08 19:48:11;;;;;;;13.10;7.65;;;4.60;99.90;;;;;;7594939;19;20109;-73
2023/01/08 19:50:45;;;;;;;14.83;7.60;;;4.70;99.90;;;;;;7592931;19;20014;-73
2023/01/08 19:53:18;;;;;;;11.90;6.68;;;4.60;99.90;;;;;;7583185;19;20315;-73
2023/01/08 19:55:51;;;;;;;11.77;6.88;;;4.60;99.90;;;;;;7591674;19;20055;-72
2023/01/08 19:58:27;;;;;;;10.80;6.90;;;4.60;99.90;;;;;;7562314;19;20007;-75
2023/01/08 20:01:11;;;;;;;19.08;9.20;;;4.60;99.90;;;;;;7570856;19;20813;-77
2023/01/08 20:03:43;;;;;;;10.93;7.85;;;4.70;99.90;;;;;;7582268;19;21315;-75
2023/01/08 20:06:19;;;;;;;13.13;9.70;;;4.70;99.90;;;;;;7576727;19;20010;-77
2023/01/08 20:08:54;;;;;;;12.13;6.97;;;4.80;99.90;;;;;;7600102;19;20484;-78
2023/01/08 20:11:27;;;;;;;8.90;6.70;;;4.80;99.90;;;;;;7592276;19;20022;-75
2023/01/08 20:14:01;;;;;;;10.25;6.68;;;4.80;99.90;;;;;;7592296;19;20037;-75
2023/01/08 20:16:33;;;;;;;10.57;5.90;;;4.80;99.90;;;;;;7593682;19;20543;-78
2023/01/08 20:19:05;;;;;;;13.02;5.85;;;4.90;99.90;;;;;;7590168;19;20038;-75
2023/01/08 20:21:38;;;;;;;8.70;5.82;;;4.90;99.90;;;;;;7592991;19;20014;-76
2023/01/08 20:24:14;;;;;;;8.60;5.38;;;4.90;99.90;;;;;;7585411;19;20037;-77
2023/01/08 20:26:50;;;;;;;10.88;6.07;;;5.00;99.90;;;;;;7581331;19;20429;-75
2023/01/08 20:29:22;;;;;;;8.95;5.68;;;5.00;99.90;;;;;;7583764;19;20021;-77
2023/01/08 20:31:58;;;;;;;11.35;6.20;;;4.90;99.90;;;;;;7543419;19;20027;-74
2023/01/08 20:34:31;;;;;;;9.52;5.50;;;5.00;99.90;;;;;;7567205;19;20117;-75
2023/01/08 20:37:05;;;;;;;9.77;5.80;;;5.00;99.90;;;;;;7547943;19;20018;-75
2023/01/08 20:39:37;;;;;;;8.38;5.70;;;4.90;99.90;;;;;;7573992;19;20082;-74
2023/01/08 20:42:10;;;;;;;10.27;6.20;;;4.90;99.90;;;;;;7565800;19;20439;-74
2023/01/08 20:44:48;;;;;;;9.00;6.13;;;4.90;99.90;;;;;;7575401;19;20053;-75
2023/01/08 20:47:20;;;;;;;11.25;6.47;;;4.90;99.90;;;;;;7559036;19;20021;-74
2023/01/08 20:49:52;;;;;;;12.57;7.40;;;4.90;99.90;;;;;;7567829;19;20011;-74
2023/01/08 20:52:25;;;;;;;11.75;6.68;;;4.90;99.90;;;;;;7552949;19;20014;-74
2023/01/08 20:54:57;;;;;;;11.52;6.55;;;4.90;99.90;;;;;;7538796;19;20049;-73
2023/01/08 20:57:29;;;;;;;9.57;5.85;;;5.00;99.90;;;;;;7561145;19;20011;-74
2023/01/08 21:00:02;;;;;;;11.82;7.15;;;5.00;99.90;;;;;;7544352;19;20409;-73
2023/01/08 21:02:34;;;;;;;16.05;7.93;;;5.00;99.90;;;;;;7558148;19;20041;-74
2023/01/08 21:05:06;;;;;;;15.55;8.02;;;5.00;99.90;;;;;;7602464;19;20391;-73
2023/01/08 21:07:39;;;;;;;16.17;9.05;;;5.00;99.90;;;;;;7597301;19;20015;-74
2023/01/08 21:10:11;;;;;;;17.80;9.30;;;5.00;99.90;;;;;;7590050;19;20023;-74
2023/01/08 21:12:43;;;;;;;21.27;12.20;;;4.90;99.90;;;;;;7574915;19;20018;-75
2023/01/08 21:15:16;;;;;;;18.48;11.45;;;5.00;99.90;;;;;;7562994;19;20010;-75
2023/01/08 21:17:49;;;;;;;22.90;13.02;;;5.00;99.90;;;;;;7571903;19;20020;-73
2023/01/08 21:20:21;;;;;;;61.67;36.63;;;5.00;99.90;;;;;;7580308;19;20025;-75
2023/01/08 21:22:54;;;;;;;50.50;30.35;;;5.10;99.90;;;;;;7593356;19;20018;-75
2023/01/08 21:25:28;;;;;;;48.85;28.30;;;5.00;99.90;;;;;;7588468;19;20010;-74
2023/01/08 21:28:00;;;;;;;47.63;29.20;;;5.00;99.90;;;;;;7596255;19;20022;-74
2023/01/08 21:30:33;;;;;;;52.72;31.80;;;5.10;99.90;;;;;;7598277;19;20675;-75
2023/01/08 21:33:05;;;;;;;51.35;28.63;;;5.00;99.90;;;;;;7599909;19;20414;-74
2023/01/08 21:35:37;;;;;;;49.92;28.80;;;5.10;99.90;;;;;;7599644;19;20695;-75
2023/01/08 21:38:10;;;;;;;52.88;29.70;;;5.00;99.90;;;;;;7590647;19;20041;-75
2023/01/08 21:40:42;;;;;;;46.20;28.48;;;5.10;99.90;;;;;;7586624;19;20022;-75
2023/01/08 21:46:05;;;;;;;50.05;27.52;;;5.10;99.90;;;;;;7592608;19;20529;-74
2023/01/08 21:48:37;;;;;;;41.35;24.15;;;5.10;99.90;;;;;;7576004;19;20014;-74
2023/01/08 21:54:00;;;;;;;39.58;20.17;;;5.10;99.90;;;;;;7595206;19;21149;-75
2023/01/08 21:56:32;;;;;;;35.50;20.17;;;5.10;99.90;;;;;;7588646;19;20017;-74
2023/01/08 21:59:04;;;;;;;35.03;19.88;;;5.10;99.90;;;;;;7595678;19;20018;-76
2023/01/08 22:01:36;;;;;;;34.85;19.50;;;5.10;99.90;;;;;;7576053;19;20018;-76
2023/01/08 22:04:08;;;;;;;51.28;26.50;;;5.10;99.90;;;;;;7592791;19;20948;-75
2023/01/08 22:06:41;;;;;;;34.08;17.33;;;5.10;99.90;;;;;;7592010;19;20033;-74
2023/01/08 22:09:13;;;;;;;28.85;15.82;;;5.20;99.90;;;;;;7591873;19;20010;-75
2023/01/08 22:11:45;;;;;;;27.02;15.43;;;5.20;99.90;;;;;;7588698;19;20019;-74
2023/01/08 22:14:17;;;;;;;25.10;14.27;;;5.20;99.90;;;;;;7585974;19;20082;-74
2023/01/08 22:16:50;;;;;;;27.50;14.07;;;5.20;99.90;;;;;;7585803;19;20010;-73
2023/01/08 22:19:22;;;;;;;22.77;12.93;;;5.20;99.90;;;;;;7587459;19;20015;-75
2023/01/08 22:21:54;;;;;;;26.98;13.23;;;5.10;99.90;;;;;;7594968;19;20015;-74
2023/01/08 22:24:26;;;;;;;24.75;14.63;;;5.10;99.90;;;;;;7583785;19;20109;-74
2023/01/08 22:26:58;;;;;;;24.63;13.18;;;5.10;99.90;;;;;;7588705;19;20018;-75
2023/01/08 22:29:30;;;;;;;25.23;13.95;;;5.10;99.90;;;;;;7585524;19;20065;-75
2023/01/08 22:32:04;;;;;;;26.05;15.25;;;5.10;99.90;;;;;;7589728;19;20014;-75
2023/01/08 22:34:36;;;;;;;21.00;12.77;;;5.10;99.90;;;;;;7585240;19;20984;-74
2023/01/08 22:37:08;;;;;;;20.33;12.65;;;5.10;99.90;;;;;;7593203;19;20669;-74
2023/01/08 22:39:40;;;;;;;21.67;12.00;;;5.10;99.90;;;;;;7583385;19;20942;-76
2023/01/08 22:42:12;;;;;;;19.38;10.57;;;5.10;99.90;;;;;;7590555;19;20018;-74
2023/01/08 22:44:44;;;;;;;19.33;10.30;;;5.00;99.90;;;;;;7589301;19;20025;-75
2023/01/08 22:47:16;;;;;;;16.60;10.77;;;5.00;99.90;;;;;;7583901;19;20026;-75
2023/01/08 22:49:49;;;;;;;18.38;10.27;;;5.00;99.90;;;;;;7592256;19;20492;-75
2023/01/08 22:52:21;;;;;;;16.50;10.45;;;5.00;99.90;;;;;;7596461;19;20014;-75
2023/01/08 22:54:55;;;;;;;15.38;9.40;;;5.10;99.90;;;;;;7595537;19;20018;-74
2023/01/08 22:57:27;;;;;;;25.05;12.63;;;5.00;99.90;;;;;;7586844;19;20022;-73
2023/01/08 22:59:59;;;;;;;18.00;10.63;;;5.00;99.90;;;;;;7599111;19;20022;-74
2023/01/08 23:02:31;;;;;;;20.52;10.52;;;5.00;99.90;;;;;;7595101;19;20014;-74
2023/01/08 23:05:04;;;;;;;27.77;13.10;;;4.90;99.90;;;;;;7603185;19;20030;-74
2023/01/08 23:07:36;;;;;;;17.07;8.83;;;5.00;99.90;;;;;;7601171;19;20602;-74
2023/01/08 23:10:09;;;;;;;16.17;9.10;;;5.10;99.90;;;;;;7594626;19;20026;-74
2023/01/08 23:12:41;;;;;;;15.18;8.65;;;5.00;99.90;;;;;;7593593;19;20267;-75
2023/01/08 23:15:13;;;;;;;14.43;8.27;;;4.90;99.90;;;;;;7574213;19;21276;-74
2023/01/08 23:17:45;;;;;;;13.15;8.27;;;4.90;99.90;;;;;;7605272;19;20023;-75
2023/01/08 23:20:23;;;;;;;16.70;9.23;;;4.80;99.90;;;;;;7588222;19;20022;-75
2023/01/08 23:22:55;;;;;;;17.38;8.63;;;4.80;99.90;;;;;;7592924;19;20019;-74
2023/01/08 23:25:28;;;;;;;12.95;8.27;;;4.90;99.90;;;;;;7592485;19;20022;-73
2023/01/08 23:28:01;;;;;;;13.33;8.07;;;4.90;99.90;;;;;;7599802;19;20060;-74
2023/01/08 23:30:33;;;;;;;13.70;7.82;;;4.90;99.90;;;;;;7596679;19;20291;-74
2023/01/08 23:33:05;;;;;;;16.00;8.15;;;4.90;99.90;;;;;;7598785;19;20014;-75
2023/01/08 23:35:37;;;;;;;15.43;8.63;;;4.90;99.90;;;;;;7592016;19;20021;-75
2023/01/08 23:38:09;;;;;;;17.63;9.23;;;4.80;99.90;;;;;;7604593;19;20014;-73
2023/01/08 23:40:42;;;;;;;15.68;8.70;;;4.80;99.90;;;;;;7598364;19;20103;-75
2023/01/08 23:43:14;;;;;;;16.58;9.95;;;4.80;99.90;;;;;;7598398;19;20029;-74
2023/01/08 23:45:46;;;;;;;17.02;9.77;;;4.80;99.90;;;;;;7566076;19;20048;-75
2023/01/08 23:48:19;;;;;;;18.50;10.23;;;4.80;99.90;;;;;;7570188;19;20010;-75
2023/01/08 23:50:51;;;;;;;13.10;8.85;;;4.80;99.90;;;;;;7585360;19;21204;-75
2023/01/08 23:53:23;;;;;;;16.23;9.10;;;4.80;99.90;;;;;;7573017;19;20015;-75
2023/01/08 23:55:55;;;;;;;12.45;8.15;;;4.90;99.90;;;;;;7576381;19;21339;-75
2023/01/08 23:58:28;;;;;;;14.60;9.07;;;4.90;99.90;;;;;;7593055;19;20015;-75
